Search for airport 
image banner adimage banner adimage banner ad
image banner ad

N96 - Bellefonte

Located in Bellefonte, United States

ICAO - N96, IATA -

Data provided by Airmate  

General information

Coordinates: N40°53'8" W77°48'58"
Elevation is 1072 feet MSL.
Magnetic variation is -10° East
View others Airports in Pennsylvania

Operational data

Special qualification required
Current time UTC:
Current local time:
Weather at : KUNV - University Park ( 5 km )
METAR: KUNV 091153Z 00000KT 10SM BKN120 04/02 A3008
TAF: KUNV 091131Z 0912/1012 25006KT P6SM BKN100 FM091500 17005KT 4SM -RA BR OVC025 FM091800 13007G15KT 2SM -RA BR OVC007 FM100300 35008G15KT 2SM -RA BR OVC006 FM100800 33008G15KT P6SM BKN009 OVC012
View NOTAMs / SUP AIP / TFR affecting this airport [VIEW]
Communications frequencies: [VIEW]

Runways:

RWY identifierQFULength (ft)Width (ft)SurfaceLDA (ft)
0756°363260ASPH
25236°363260ASPH

Airport contact information

Address: Bellefonte United States

Other aviation service providers

Flight schools

Pleasant Valley Aviation, Inc.

Pleasant Valley Aviation, Inc.

Satellite view of N96